Time;durP1;ratioP1;P1;durP2;ratioP2;P2;SDS_P1;SDS_P2;PMS_P1;PMS_P2;Temp;Humidity;BMP_temperature;BMP_pressure;BME280_temperature;BME280_humidity;BME280_pressure;Samples;Min_cycle;Max_cycle;Signal;HPM_P1;HPM_P2
2023/09/30 00:01:49;;;;;;;13.20;5.25;;;;;;;;;;5027715;28;20230;-82
2023/09/30 00:04:17;;;;;;;11.90;5.40;;;;;;;;;;5021395;28;20254;-80
2023/09/30 00:06:44;;;;;;;11.18;5.72;;;;;;;;;;5030739;28;20206;-82
2023/09/30 00:09:12;;;;;;;9.35;5.38;;;;;;;;;;5027906;28;20202;-82
2023/09/30 00:11:39;;;;;;;11.48;5.40;;;;;;;;;;5025675;28;20206;-85
2023/09/30 00:14:07;;;;;;;9.60;5.15;;;;;;;;;;5030043;28;20207;-83
2023/09/30 00:16:34;;;;;;;9.18;4.90;;;;;;;;;;5051925;28;20206;-82
2023/09/30 00:19:03;;;;;;;9.98;4.65;;;;;;;;;;5048719;28;20210;-83
2023/09/30 00:21:30;;;;;;;10.25;5.18;;;;;;;;;;5039610;28;20451;-81
2023/09/30 00:23:58;;;;;;;10.45;4.85;;;;;;;;;;5016880;28;20261;-80
2023/09/30 00:26:25;;;;;;;10.00;4.57;;;;;;;;;;5038378;28;20720;-84
2023/09/30 00:28:52;;;;;;;11.48;5.07;;;;;;;;;;5031479;28;20250;-82
2023/09/30 00:31:20;;;;;;;12.03;5.57;;;;;;;;;;5018947;28;20199;-82
2023/09/30 00:33:47;;;;;;;9.98;5.18;;;;;;;;;;5048933;28;20224;-80
2023/09/30 00:36:15;;;;;;;10.07;4.75;;;;;;;;;;5038330;28;20226;-82
2023/09/30 00:38:43;;;;;;;9.27;4.90;;;;;;;;;;5021158;28;20589;-82
2023/09/30 00:41:10;;;;;;;11.07;5.00;;;;;;;;;;5030987;28;20265;-83
2023/09/30 00:43:37;;;;;;;10.30;4.70;;;;;;;;;;5035903;28;20214;-84
2023/09/30 00:46:14;;;;;;;10.45;4.72;;;;;;;;;;5032310;28;20606;-85
2023/09/30 00:48:42;;;;;;;11.35;5.63;;;;;;;;;;5021777;28;20218;-82
2023/09/30 00:51:09;;;;;;;11.93;7.00;;;;;;;;;;5031844;28;20203;-82
2023/09/30 00:53:36;;;;;;;12.60;7.70;;;;;;;;;;5031995;28;20203;-83
2023/09/30 00:56:04;;;;;;;9.40;5.22;;;;;;;;;;5035979;28;21439;-81
2023/09/30 00:58:33;;;;;;;13.98;5.57;;;;;;;;;;5034076;28;20260;-83
2023/09/30 01:01:00;;;;;;;11.82;5.03;;;;;;;;;;5030589;28;20251;-83
2023/09/30 01:03:27;;;;;;;11.73;5.53;;;;;;;;;;5042958;28;20273;-85
2023/09/30 01:05:55;;;;;;;10.13;4.90;;;;;;;;;;5042815;28;20227;-83
2023/09/30 01:08:22;;;;;;;10.02;5.57;;;;;;;;;;5047900;28;20619;-79
2023/09/30 01:10:50;;;;;;;10.65;4.90;;;;;;;;;;5027264;28;20206;-83
2023/09/30 01:13:18;;;;;;;11.47;5.07;;;;;;;;;;5044616;28;20659;-81
2023/09/30 01:15:47;;;;;;;10.20;5.18;;;;;;;;;;5031743;28;20222;-82
2023/09/30 01:18:14;;;;;;;10.23;5.20;;;;;;;;;;5032633;28;20202;-83
2023/09/30 01:20:41;;;;;;;12.40;5.82;;;;;;;;;;5035360;28;20880;-82
2023/09/30 01:23:13;;;;;;;12.47;5.47;;;;;;;;;;5036368;28;20203;-82
2023/09/30 01:25:40;;;;;;;10.57;5.45;;;;;;;;;;5035423;28;20757;-83
2023/09/30 01:28:10;;;;;;;11.30;6.90;;;;;;;;;;5042197;28;20734;-80
2023/09/30 01:30:37;;;;;;;10.50;5.83;;;;;;;;;;5041968;28;20728;-83
2023/09/30 01:33:07;;;;;;;12.67;7.37;;;;;;;;;;5014070;28;20204;-82
2023/09/30 01:35:35;;;;;;;12.57;5.90;;;;;;;;;;5042816;28;20245;-81
2023/09/30 01:38:02;;;;;;;11.97;6.83;;;;;;;;;;5029267;28;20332;-84
2023/09/30 01:40:29;;;;;;;11.43;7.03;;;;;;;;;;5038516;28;20265;-83
2023/09/30 01:42:57;;;;;;;11.80;7.27;;;;;;;;;;5038242;28;20212;-83
2023/09/30 01:45:24;;;;;;;10.07;5.93;;;;;;;;;;5040107;28;20227;-83
2023/09/30 01:47:51;;;;;;;13.10;7.57;;;;;;;;;;5036632;28;20202;-81
2023/09/30 01:50:19;;;;;;;14.70;8.63;;;;;;;;;;5045764;28;20195;-81
2023/09/30 01:52:47;;;;;;;11.77;6.13;;;;;;;;;;5054058;28;20195;-81
2023/09/30 01:55:14;;;;;;;10.63;5.30;;;;;;;;;;5044531;28;20265;-82
2023/09/30 01:57:41;;;;;;;9.95;5.38;;;;;;;;;;5050662;28;20195;-81
2023/09/30 02:00:09;;;;;;;13.40;8.30;;;;;;;;;;5045724;28;20217;-80
2023/09/30 02:02:36;;;;;;;19.47;10.53;;;;;;;;;;5052408;28;20238;-82
2023/09/30 02:05:04;;;;;;;15.13;7.80;;;;;;;;;;5042961;28;20226;-82
2023/09/30 02:07:31;;;;;;;10.25;5.32;;;;;;;;;;5024000;28;20234;-82
2023/09/30 02:09:59;;;;;;;10.03;5.10;;;;;;;;;;5057251;28;20250;-81
2023/09/30 02:12:28;;;;;;;11.70;5.67;;;;;;;;;;5039914;28;20199;-82
2023/09/30 02:14:56;;;;;;;13.10;6.23;;;;;;;;;;5032817;28;20234;-83
2023/09/30 02:17:23;;;;;;;11.10;5.87;;;;;;;;;;5048454;28;20655;-81
2023/09/30 02:19:50;;;;;;;11.10;5.38;;;;;;;;;;5045128;28;20198;-84
2023/09/30 02:22:18;;;;;;;10.07;5.63;;;;;;;;;;5037880;28;20202;-84
2023/09/30 02:24:45;;;;;;;12.63;6.23;;;;;;;;;;5040702;28;20292;-83
2023/09/30 02:27:12;;;;;;;11.97;5.50;;;;;;;;;;5023193;28;20254;-83
2023/09/30 02:29:40;;;;;;;9.70;5.53;;;;;;;;;;5044251;28;20206;-82
2023/09/30 02:32:07;;;;;;;9.35;4.60;;;;;;;;;;5015668;28;20200;-84
2023/09/30 02:34:35;;;;;;;10.73;4.87;;;;;;;;;;5019192;28;20230;-85
2023/09/30 02:37:02;;;;;;;9.57;4.95;;;;;;;;;;5038118;28;20211;-84
2023/09/30 02:39:29;;;;;;;12.03;4.70;;;;;;;;;;5037737;28;20645;-82
2023/09/30 02:41:56;;;;;;;12.30;5.80;;;;;;;;;;5036636;28;20643;-83
2023/09/30 02:44:24;;;;;;;10.70;5.23;;;;;;;;;;5022482;28;20251;-83
2023/09/30 02:46:53;;;;;;;9.63;5.37;;;;;;;;;;5031436;28;20207;-82
2023/09/30 02:49:20;;;;;;;10.17;4.80;;;;;;;;;;5019319;28;20218;-83
2023/09/30 02:51:47;;;;;;;11.63;5.60;;;;;;;;;;5039993;28;20633;-83
2023/09/30 02:54:15;;;;;;;10.00;5.77;;;;;;;;;;5040057;28;20262;-81
2023/09/30 02:56:44;;;;;;;10.93;6.13;;;;;;;;;;5047710;28;20230;-82
2023/09/30 02:59:11;;;;;;;11.87;5.27;;;;;;;;;;5033812;28;20225;-81
2023/09/30 03:01:38;;;;;;;11.70;5.53;;;;;;;;;;5030019;28;20203;-80
2023/09/30 03:04:06;;;;;;;10.50;5.80;;;;;;;;;;5027251;28;20206;-83
2023/09/30 03:06:38;;;;;;;10.13;6.50;;;;;;;;;;5032952;28;20253;-83
2023/09/30 03:09:06;;;;;;;8.37;4.80;;;;;;;;;;5030078;28;20210;-82
2023/09/30 03:11:34;;;;;;;8.80;4.90;;;;;;;;;;5035852;28;20210;-82
2023/09/30 03:14:01;;;;;;;13.50;5.43;;;;;;;;;;5032006;28;20203;-81
2023/09/30 03:16:30;;;;;;;12.10;5.23;;;;;;;;;;5027956;28;20212;-81
2023/09/30 03:18:58;;;;;;;10.07;4.80;;;;;;;;;;5036649;28;20199;-83
2023/09/30 03:21:25;;;;;;;11.53;5.07;;;;;;;;;;5032476;28;20215;-81
2023/09/30 03:23:52;;;;;;;11.27;5.20;;;;;;;;;;5032068;28;20191;-80
2023/09/30 03:26:20;;;;;;;9.43;5.10;;;;;;;;;;5044196;28;20226;-79
2023/09/30 03:28:47;;;;;;;8.67;4.83;;;;;;;;;;5038103;28;20207;-80
2023/09/30 03:31:19;;;;;;;9.17;4.77;;;;;;;;;;5007635;28;20199;-82
2023/09/30 03:33:47;;;;;;;9.67;5.60;;;;;;;;;;5023440;28;20221;-80
2023/09/30 03:36:15;;;;;;;9.70;5.33;;;;;;;;;;5030039;28;20219;-85
2023/09/30 03:38:42;;;;;;;8.60;5.10;;;;;;;;;;5029719;28;20208;-82
2023/09/30 03:41:12;;;;;;;9.20;5.00;;;;;;;;;;5027985;28;20199;-81
2023/09/30 03:43:42;;;;;;;8.87;5.40;;;;;;;;;;5014442;28;20245;-81
2023/09/30 03:46:11;;;;;;;11.63;5.40;;;;;;;;;;5032276;28;20231;-80
2023/09/30 03:48:39;;;;;;;12.87;5.60;;;;;;;;;;5025913;28;20207;-82
2023/09/30 03:51:13;;;;;;;10.73;5.03;;;;;;;;;;5029831;28;20210;-83
2023/09/30 03:53:45;;;;;;;13.30;5.33;;;;;;;;;;5019455;28;21033;-84
2023/09/30 03:56:13;;;;;;;9.47;4.67;;;;;;;;;;5021780;28;20218;-83
2023/09/30 03:58:44;;;;;;;9.13;5.27;;;;;;;;;;5020738;28;20209;-80
2023/09/30 04:01:13;;;;;;;10.40;5.87;;;;;;;;;;5017763;28;20233;-80
2023/09/30 04:03:43;;;;;;;10.37;5.63;;;;;;;;;;5023247;28;20211;-80
2023/09/30 04:06:20;;;;;;;12.33;5.80;;;;;;;;;;5026119;28;20223;-81
2023/09/30 04:08:47;;;;;;;12.57;5.57;;;;;;;;;;5029790;28;20206;-80
2023/09/30 04:11:18;;;;;;;10.40;5.53;;;;;;;;;;5007528;28;20207;-81
2023/09/30 04:13:45;;;;;;;10.10;5.17;;;;;;;;;;5003966;28;20214;-82
2023/09/30 04:16:12;;;;;;;9.33;4.83;;;;;;;;;;5038069;28;20218;-82
2023/09/30 04:18:40;;;;;;;9.77;5.03;;;;;;;;;;5032881;28;20211;-83
2023/09/30 04:21:07;;;;;;;10.17;4.67;;;;;;;;;;5014999;28;20261;-82
2023/09/30 04:23:38;;;;;;;14.07;5.53;;;;;;;;;;5035124;28;20206;-84
2023/09/30 04:26:05;;;;;;;11.67;5.27;;;;;;;;;;5026005;28;20231;-81
2023/09/30 04:28:34;;;;;;;9.00;5.03;;;;;;;;;;5021995;28;20213;-82
2023/09/30 04:31:02;;;;;;;9.53;5.37;;;;;;;;;;5020871;28;20210;-82
2023/09/30 04:33:30;;;;;;;10.47;6.00;;;;;;;;;;5028088;28;20211;-81
2023/09/30 04:35:57;;;;;;;10.30;5.60;;;;;;;;;;5028288;28;20307;-81
2023/09/30 04:38:25;;;;;;;10.13;5.60;;;;;;;;;;5044380;28;20226;-82
2023/09/30 04:40:54;;;;;;;11.93;6.57;;;;;;;;;;5035408;28;20634;-82
2023/09/30 04:43:21;;;;;;;10.90;6.07;;;;;;;;;;5029471;28;20227;-81
2023/09/30 04:45:52;;;;;;;12.47;5.70;;;;;;;;;;5045154;28;20264;-82
2023/09/30 04:48:20;;;;;;;8.97;5.27;;;;;;;;;;5034366;28;20220;-82
2023/09/30 04:50:47;;;;;;;11.40;5.83;;;;;;;;;;5033596;28;20218;-81
2023/09/30 04:53:17;;;;;;;11.20;5.17;;;;;;;;;;5022132;28;20210;-82
2023/09/30 04:55:44;;;;;;;11.83;5.50;;;;;;;;;;5018522;28;20226;-83
2023/09/30 04:58:12;;;;;;;9.27;5.17;;;;;;;;;;5027074;28;20207;-81
2023/09/30 05:00:40;;;;;;;11.20;5.57;;;;;;;;;;5022925;28;20208;-81
2023/09/30 05:03:07;;;;;;;8.43;5.03;;;;;;;;;;5030135;28;20214;-82
2023/09/30 05:05:35;;;;;;;10.70;6.10;;;;;;;;;;5038228;28;20238;-83
2023/09/30 05:08:02;;;;;;;8.77;5.20;;;;;;;;;;5032185;28;20204;-82
2023/09/30 05:10:29;;;;;;;7.97;4.80;;;;;;;;;;5035298;28;20210;-81
2023/09/30 05:12:59;;;;;;;10.67;5.17;;;;;;;;;;5037979;28;20203;-83
2023/09/30 05:15:29;;;;;;;10.23;4.87;;;;;;;;;;5030229;28;20230;-84
2023/09/30 05:17:56;;;;;;;10.87;5.97;;;;;;;;;;5032541;28;20740;-83
2023/09/30 05:20:24;;;;;;;11.90;6.60;;;;;;;;;;5033110;28;20213;-81
2023/09/30 05:22:51;;;;;;;9.07;5.17;;;;;;;;;;5034460;28;20218;-83
2023/09/30 05:25:19;;;;;;;11.03;5.57;;;;;;;;;;5019551;28;20237;-83
2023/09/30 05:27:50;;;;;;;9.43;5.53;;;;;;;;;;5037351;28;20207;-82
2023/09/30 05:30:19;;;;;;;10.90;4.63;;;;;;;;;;5021084;28;20222;-82
2023/09/30 05:32:47;;;;;;;7.73;4.70;;;;;;;;;;5040335;28;20213;-83
2023/09/30 05:35:16;;;;;;;9.60;4.87;;;;;;;;;;5034775;28;20267;-83
2023/09/30 05:37:45;;;;;;;7.80;4.57;;;;;;;;;;5037445;28;20198;-82
2023/09/30 05:40:24;;;;;;;8.57;4.57;;;;;;;;;;5023646;28;20215;-82
2023/09/30 05:42:57;;;;;;;8.43;5.13;;;;;;;;;;5015200;28;20202;-81
2023/09/30 05:45:28;;;;;;;8.47;4.77;;;;;;;;;;5035075;28;20340;-80
2023/09/30 05:47:57;;;;;;;7.93;4.43;;;;;;;;;;5039872;28;20210;-81
2023/09/30 05:50:26;;;;;;;7.83;4.80;;;;;;;;;;5029987;28;20204;-82
2023/09/30 05:52:55;;;;;;;8.27;4.77;;;;;;;;;;5034067;28;20289;-81
2023/09/30 05:55:25;;;;;;;8.40;4.67;;;;;;;;;;5048185;28;20281;-83
2023/09/30 05:57:53;;;;;;;7.07;4.20;;;;;;;;;;5040140;28;20210;-84
2023/09/30 06:00:30;;;;;;;9.20;4.60;;;;;;;;;;5036437;28;20207;-81
2023/09/30 06:02:59;;;;;;;8.07;4.60;;;;;;;;;;5020104;28;20416;-82
2023/09/30 06:05:27;;;;;;;6.77;4.60;;;;;;;;;;5048106;28;20223;-81
2023/09/30 06:07:54;;;;;;;9.47;4.50;;;;;;;;;;5047471;28;20230;-83
2023/09/30 06:10:22;;;;;;;9.60;5.30;;;;;;;;;;5027880;28;20199;-84
2023/09/30 06:12:58;;;;;;;9.70;4.73;;;;;;;;;;5043510;28;20203;-84
2023/09/30 06:15:25;;;;;;;6.77;4.67;;;;;;;;;;5043707;28;20227;-81
2023/09/30 06:17:54;;;;;;;8.53;5.43;;;;;;;;;;5040561;28;20206;-82
2023/09/30 06:20:22;;;;;;;9.17;5.40;;;;;;;;;;5019058;28;20770;-83
2023/09/30 06:22:50;;;;;;;8.77;4.93;;;;;;;;;;5029964;28;20265;-82
2023/09/30 06:25:18;;;;;;;8.67;5.30;;;;;;;;;;5026519;28;20627;-83
2023/09/30 06:27:46;;;;;;;7.53;4.60;;;;;;;;;;5029896;28;20262;-83
2023/09/30 06:30:20;;;;;;;8.63;4.93;;;;;;;;;;5025804;28;20199;-83
2023/09/30 06:32:48;;;;;;;10.90;5.17;;;;;;;;;;5029214;28;20194;-81
2023/09/30 06:35:16;;;;;;;9.10;4.80;;;;;;;;;;5043717;28;20215;-82
2023/09/30 06:37:46;;;;;;;8.03;5.10;;;;;;;;;;5026869;28;20631;-81
2023/09/30 06:40:13;;;;;;;11.90;5.80;;;;;;;;;;5031606;28;20214;-84
2023/09/30 06:42:42;;;;;;;11.20;5.37;;;;;;;;;;5044582;28;20264;-83
2023/09/30 06:45:10;;;;;;;6.87;4.50;;;;;;;;;;5021198;28;20250;-81
2023/09/30 06:47:38;;;;;;;8.10;4.77;;;;;;;;;;5040440;28;20233;-81
2023/09/30 06:50:10;;;;;;;7.40;4.50;;;;;;;;;;5032244;28;20199;-82
2023/09/30 06:52:38;;;;;;;8.40;4.80;;;;;;;;;;5037894;28;20619;-81
2023/09/30 06:55:06;;;;;;;8.10;4.87;;;;;;;;;;5041684;28;20223;-82
2023/09/30 06:57:37;;;;;;;9.63;5.63;;;;;;;;;;5044404;28;20273;-82
2023/09/30 07:00:12;;;;;;;8.43;5.13;;;;;;;;;;5033172;28;20238;-84
2023/09/30 07:02:40;;;;;;;11.05;6.70;;;;;;;;;;5032614;28;20221;-82
2023/09/30 07:05:09;;;;;;;8.98;4.95;;;;;;;;;;5028622;28;20237;-82
2023/09/30 07:07:36;;;;;;;9.60;5.00;;;;;;;;;;5036923;28;20226;-84
2023/09/30 07:10:04;;;;;;;11.77;7.10;;;;;;;;;;5031850;28;20694;-82
2023/09/30 07:12:35;;;;;;;10.55;6.00;;;;;;;;;;5030059;28;20226;-78
2023/09/30 07:15:04;;;;;;;9.48;5.47;;;;;;;;;;5030672;28;20290;-83
2023/09/30 07:17:31;;;;;;;9.60;5.65;;;;;;;;;;5024733;28;20209;-84
2023/09/30 07:19:59;;;;;;;8.05;5.47;;;;;;;;;;5025212;28;20211;-84
2023/09/30 07:22:26;;;;;;;11.48;5.95;;;;;;;;;;5051363;28;20267;-82
2023/09/30 07:25:16;;;;;;;9.60;5.18;;;;;;;;;;5026167;28;20309;-81
2023/09/30 07:27:47;;;;;;;8.95;5.28;;;;;;;;;;5027752;28;20251;-83
2023/09/30 07:30:17;;;;;;;8.95;5.38;;;;;;;;;;5029357;28;20211;-80
2023/09/30 07:32:46;;;;;;;11.82;5.60;;;;;;;;;;5021803;28;20219;-82
2023/09/30 07:35:15;;;;;;;9.55;5.90;;;;;;;;;;5022067;28;20685;-80
2023/09/30 07:37:43;;;;;;;8.13;5.22;;;;;;;;;;5029179;28;20235;-83
2023/09/30 07:40:11;;;;;;;9.50;5.70;;;;;;;;;;5008812;28;20266;-83
2023/09/30 07:42:38;;;;;;;8.65;5.55;;;;;;;;;;5023666;28;20292;-83
2023/09/30 07:45:06;;;;;;;10.27;6.03;;;;;;;;;;5021540;28;20225;-82
2023/09/30 07:47:33;;;;;;;9.50;5.90;;;;;;;;;;5028054;28;20226;-85
2023/09/30 07:50:09;;;;;;;10.82;6.05;;;;;;;;;;5027446;28;20210;-82
2023/09/30 07:52:39;;;;;;;8.88;5.63;;;;;;;;;;5028005;28;20210;-83
2023/09/30 07:55:08;;;;;;;9.25;5.40;;;;;;;;;;5013322;28;20313;-83
2023/09/30 07:57:35;;;;;;;10.35;5.80;;;;;;;;;;5013213;28;20214;-82
2023/09/30 08:00:08;;;;;;;9.18;5.72;;;;;;;;;;5022593;28;20265;-83
2023/09/30 08:02:36;;;;;;;12.00;6.32;;;;;;;;;;5023912;28;20222;-83
2023/09/30 08:05:06;;;;;;;8.38;4.95;;;;;;;;;;5026399;28;20226;-83
2023/09/30 08:07:33;;;;;;;12.88;5.78;;;;;;;;;;5023231;28;20245;-83
2023/09/30 08:10:04;;;;;;;10.75;5.90;;;;;;;;;;5023313;28;20209;-83
2023/09/30 08:12:32;;;;;;;11.30;7.40;;;;;;;;;;5028520;28;20202;-82
2023/09/30 08:14:59;;;;;;;8.43;5.47;;;;;;;;;;5015407;28;20612;-83
2023/09/30 08:17:27;;;;;;;16.55;9.43;;;;;;;;;;5018204;28;20218;-83
2023/09/30 08:19:54;;;;;;;9.18;5.82;;;;;;;;;;5028569;28;20203;-83
2023/09/30 08:22:25;;;;;;;11.95;6.35;;;;;;;;;;5027318;28;20212;-85
2023/09/30 08:24:53;;;;;;;9.02;5.72;;;;;;;;;;4996336;28;20220;-82
2023/09/30 08:27:20;;;;;;;8.63;5.05;;;;;;;;;;5005563;28;20233;-82
2023/09/30 08:29:47;;;;;;;9.70;5.75;;;;;;;;;;5028704;28;20199;-84
2023/09/30 08:32:15;;;;;;;8.77;5.03;;;;;;;;;;5016585;28;20218;-85
2023/09/30 08:34:42;;;;;;;9.68;5.65;;;;;;;;;;5026453;28;20234;-81
2023/09/30 08:37:10;;;;;;;10.80;5.85;;;;;;;;;;5031532;28;20211;-80
2023/09/30 08:39:40;;;;;;;10.07;5.22;;;;;;;;;;5035950;28;20263;-81
2023/09/30 08:42:11;;;;;;;8.85;5.07;;;;;;;;;;5018265;28;20210;-80
2023/09/30 08:44:41;;;;;;;9.40;5.63;;;;;;;;;;5015312;28;20708;-81
2023/09/30 08:47:09;;;;;;;10.00;5.40;;;;;;;;;;5034453;28;20218;-81
2023/09/30 08:49:41;;;;;;;10.93;6.55;;;;;;;;;;5031613;28;20203;-80
2023/09/30 08:52:10;;;;;;;10.70;5.75;;;;;;;;;;5029192;28;20203;-81
2023/09/30 08:54:38;;;;;;;11.80;6.68;;;;;;;;;;5032604;28;20322;-83
2023/09/30 08:57:07;;;;;;;13.07;7.20;;;;;;;;;;5031812;28;20235;-80
2023/09/30 08:59:36;;;;;;;10.57;6.85;;;;;;;;;;5032292;28;20207;-83
2023/09/30 09:02:03;;;;;;;13.25;6.60;;;;;;;;;;5038316;28;20209;-82
2023/09/30 09:04:31;;;;;;;9.18;5.90;;;;;;;;;;5006121;28;20222;-81
2023/09/30 09:06:58;;;;;;;10.43;6.05;;;;;;;;;;5026643;28;20712;-81
2023/09/30 09:09:25;;;;;;;10.55;5.13;;;;;;;;;;5030394;28;20254;-83
2023/09/30 09:11:53;;;;;;;9.15;5.72;;;;;;;;;;5013258;28;20209;-81
2023/09/30 09:14:20;;;;;;;11.30;5.85;;;;;;;;;;5027821;28;20210;-80
2023/09/30 09:16:55;;;;;;;10.32;5.60;;;;;;;;;;5006925;28;20531;-83
2023/09/30 09:19:23;;;;;;;9.63;5.35;;;;;;;;;;5035472;28;20237;-84
2023/09/30 09:21:55;;;;;;;10.68;5.30;;;;;;;;;;5021181;28;20646;-80
2023/09/30 09:24:33;;;;;;;11.00;6.28;;;;;;;;;;5025857;28;20217;-80
2023/09/30 09:27:06;;;;;;;13.00;5.75;;;;;;;;;;5037546;28;20297;-82
2023/09/30 09:29:34;;;;;;;12.02;6.88;;;;;;;;;;5030176;28;20606;-81
2023/09/30 09:32:28;;;;;;;12.15;6.57;;;;;;;;;;5030246;28;20199;-82
2023/09/30 09:35:01;;;;;;;13.85;6.63;;;;;;;;;;5029136;28;20886;-83
2023/09/30 09:37:28;;;;;;;11.35;6.70;;;;;;;;;;5034603;28;20215;-84
2023/09/30 09:39:56;;;;;;;14.45;6.70;;;;;;;;;;5033786;28;20341;-83
2023/09/30 09:42:31;;;;;;;12.38;6.55;;;;;;;;;;5035177;28;20213;-79
2023/09/30 09:45:05;;;;;;;11.07;6.47;;;;;;;;;;5033678;28;20223;-82
2023/09/30 09:47:33;;;;;;;10.45;6.25;;;;;;;;;;5014268;28;20672;-84
2023/09/30 09:50:03;;;;;;;11.45;6.68;;;;;;;;;;5018269;28;20294;-82
2023/09/30 09:52:30;;;;;;;10.65;6.38;;;;;;;;;;5026392;28;20625;-83
2023/09/30 09:54:58;;;;;;;12.20;6.95;;;;;;;;;;5022741;28;20273;-82
2023/09/30 09:57:26;;;;;;;11.50;6.63;;;;;;;;;;5027460;28;20203;-82
2023/09/30 09:59:55;;;;;;;12.95;7.22;;;;;;;;;;5034512;28;20207;-81
2023/09/30 10:02:27;;;;;;;13.57;7.00;;;;;;;;;;5026331;28;20212;-78
2023/09/30 10:04:56;;;;;;;14.25;7.35;;;;;;;;;;5025219;28;20789;-80
2023/09/30 10:07:28;;;;;;;18.42;7.45;;;;;;;;;;5012142;28;20237;-79
2023/09/30 10:09:57;;;;;;;15.98;8.70;;;;;;;;;;5044345;28;20183;-80
2023/09/30 10:12:30;;;;;;;16.65;8.95;;;;;;;;;;5019671;28;20230;-78
2023/09/30 10:14:59;;;;;;;24.85;14.35;;;;;;;;;;5023680;28;20226;-83
2023/09/30 10:17:45;;;;;;;17.55;9.95;;;;;;;;;;5018775;28;20243;-81
2023/09/30 10:20:13;;;;;;;15.18;7.05;;;;;;;;;;5025904;28;20202;-80
2023/09/30 10:22:43;;;;;;;20.90;12.10;;;;;;;;;;5043253;28;20211;-80
2023/09/30 10:25:47;;;;;;;15.10;8.00;;;;;;;;;;5022748;28;20242;-82
2023/09/30 10:28:33;;;;;;;16.25;8.70;;;;;;;;;;4973113;28;20231;-80
2023/09/30 10:31:20;;;;;;;13.98;7.45;;;;;;;;;;5023144;28;20207;-80
2023/09/30 10:34:00;;;;;;;18.42;11.05;;;;;;;;;;5037436;28;20218;-83
2023/09/30 10:36:29;;;;;;;12.93;7.90;;;;;;;;;;5003774;28;20238;-85
2023/09/30 10:38:56;;;;;;;16.55;9.68;;;;;;;;;;5033923;28;20289;-80
2023/09/30 10:41:39;;;;;;;16.40;9.85;;;;;;;;;;5029034;28;20186;-80
2023/09/30 10:44:26;;;;;;;15.82;8.73;;;;;;;;;;5043116;28;20929;-83
2023/09/30 10:46:53;;;;;;;15.50;8.88;;;;;;;;;;5014218;28;20280;-84
2023/09/30 10:49:24;;;;;;;15.80;8.77;;;;;;;;;;5025376;28;20203;-83
2023/09/30 10:51:52;;;;;;;15.95;7.82;;;;;;;;;;5033793;28;20206;-82
2023/09/30 10:54:26;;;;;;;14.63;8.07;;;;;;;;;;5038305;28;20207;-82
2023/09/30 10:56:53;;;;;;;14.48;8.05;;;;;;;;;;5032753;28;20661;-85
2023/09/30 10:59:24;;;;;;;13.20;7.22;;;;;;;;;;5033617;28;20202;-81
2023/09/30 11:01:51;;;;;;;13.88;7.90;;;;;;;;;;5028843;28;20219;-83
2023/09/30 11:04:20;;;;;;;12.75;7.50;;;;;;;;;;5023387;28;20293;-82
2023/09/30 11:06:47;;;;;;;13.52;7.90;;;;;;;;;;5024422;28;20250;-83
2023/09/30 11:09:19;;;;;;;13.48;7.68;;;;;;;;;;5027426;28;20207;-84
2023/09/30 11:11:48;;;;;;;16.88;8.85;;;;;;;;;;5001694;28;20206;-79
2023/09/30 11:14:20;;;;;;;15.90;8.05;;;;;;;;;;5029495;28;20203;-79
2023/09/30 11:16:48;;;;;;;14.68;7.85;;;;;;;;;;5004212;28;20590;-79
2023/09/30 11:19:16;;;;;;;15.85;8.70;;;;;;;;;;5014232;28;20207;-83
2023/09/30 11:21:46;;;;;;;13.57;8.38;;;;;;;;;;5019373;28;20210;-82
2023/09/30 11:24:14;;;;;;;16.60;8.55;;;;;;;;;;5002025;28;20219;-83
2023/09/30 11:26:41;;;;;;;15.73;8.07;;;;;;;;;;5017850;28;21737;-83
2023/09/30 11:29:18;;;;;;;15.55;8.05;;;;;;;;;;5010830;28;20211;-82
2023/09/30 11:31:46;;;;;;;13.27;7.93;;;;;;;;;;5020164;28;20203;-81
2023/09/30 11:34:16;;;;;;;13.77;7.47;;;;;;;;;;4996805;28;20206;-84
2023/09/30 11:36:50;;;;;;;14.02;7.63;;;;;;;;;;5023480;28;20219;-81
2023/09/30 11:39:24;;;;;;;15.50;8.57;;;;;;;;;;5022818;28;20203;-83
2023/09/30 11:41:52;;;;;;;13.95;8.13;;;;;;;;;;5027413;28;20210;-82
2023/09/30 11:44:19;;;;;;;14.02;7.90;;;;;;;;;;5033716;28;20265;-82
2023/09/30 11:46:53;;;;;;;14.02;7.60;;;;;;;;;;5005732;28;20207;-82
2023/09/30 11:49:40;;;;;;;14.02;8.13;;;;;;;;;;5025588;28;20275;-80
2023/09/30 11:52:09;;;;;;;11.70;7.38;;;;;;;;;;5018920;28;20203;-81
2023/09/30 11:54:39;;;;;;;14.75;7.45;;;;;;;;;;5034692;28;20222;-81
2023/09/30 11:57:09;;;;;;;16.08;8.60;;;;;;;;;;5028076;28;20218;-79
2023/09/30 11:59:37;;;;;;;13.27;7.90;;;;;;;;;;5010244;28;20269;-82
2023/09/30 12:02:08;;;;;;;13.50;8.23;;;;;;;;;;5020054;28;20833;-80
2023/09/30 12:04:41;;;;;;;16.80;7.95;;;;;;;;;;5026134;28;20388;-82
2023/09/30 12:07:08;;;;;;;14.48;7.88;;;;;;;;;;5018555;28;20337;-80
2023/09/30 12:09:37;;;;;;;14.85;9.50;;;;;;;;;;5004849;28;20724;-81
2023/09/30 12:12:05;;;;;;;14.25;7.88;;;;;;;;;;5013642;28;20199;-80
2023/09/30 12:14:32;;;;;;;13.43;7.47;;;;;;;;;;5018841;28;20376;-79
2023/09/30 12:17:00;;;;;;;12.80;6.88;;;;;;;;;;5032383;28;20806;-80
2023/09/30 12:19:27;;;;;;;12.45;7.45;;;;;;;;;;5030779;28;20206;-79
2023/09/30 12:21:55;;;;;;;13.13;7.32;;;;;;;;;;5020407;28;20213;-80
2023/09/30 12:24:24;;;;;;;14.07;8.30;;;;;;;;;;5028439;28;20199;-80
2023/09/30 12:26:52;;;;;;;22.30;13.32;;;;;;;;;;5030320;28;21882;-81
2023/09/30 12:29:21;;;;;;;33.50;20.75;;;;;;;;;;5035312;28;20298;-81
2023/09/30 12:31:50;;;;;;;14.65;7.85;;;;;;;;;;5028583;28;20643;-79
2023/09/30 12:34:23;;;;;;;16.23;7.78;;;;;;;;;;5037747;28;20283;-79
2023/09/30 12:36:50;;;;;;;13.75;7.63;;;;;;;;;;5045825;28;20241;-83
2023/09/30 12:39:23;;;;;;;13.35;8.32;;;;;;;;;;5036721;28;20676;-82
2023/09/30 12:41:51;;;;;;;14.10;8.20;;;;;;;;;;5036560;28;20199;-82
2023/09/30 12:44:19;;;;;;;15.23;8.45;;;;;;;;;;5015454;28;20231;-81
2023/09/30 12:46:47;;;;;;;14.90;7.97;;;;;;;;;;5046626;28;20199;-81
2023/09/30 12:49:15;;;;;;;13.55;8.13;;;;;;;;;;5020016;28;20230;-80
2023/09/30 12:51:42;;;;;;;15.50;8.60;;;;;;;;;;5035545;28;20206;-81
2023/09/30 12:54:10;;;;;;;15.27;9.18;;;;;;;;;;5034063;28;20210;-82
2023/09/30 12:56:38;;;;;;;14.43;8.75;;;;;;;;;;5034515;28;20482;-81
2023/09/30 12:59:06;;;;;;;14.18;8.05;;;;;;;;;;5055401;28;20210;-81
2023/09/30 13:01:34;;;;;;;14.40;8.45;;;;;;;;;;5038836;28;20339;-82
2023/09/30 13:04:02;;;;;;;14.60;8.48;;;;;;;;;;5033522;28;20294;-81
2023/09/30 13:06:32;;;;;;;13.60;7.88;;;;;;;;;;5026914;28;20774;-81
2023/09/30 13:09:00;;;;;;;15.82;8.73;;;;;;;;;;5037671;28;20294;-82
2023/09/30 13:11:27;;;;;;;13.98;8.23;;;;;;;;;;5021143;28;20203;-81
2023/09/30 13:13:55;;;;;;;14.27;8.45;;;;;;;;;;5013855;28;20210;-82
2023/09/30 13:16:22;;;;;;;15.43;9.25;;;;;;;;;;5028211;28;20637;-81
2023/09/30 13:18:52;;;;;;;15.65;8.30;;;;;;;;;;5024304;28;20211;-82
2023/09/30 13:21:20;;;;;;;16.33;9.65;;;;;;;;;;5009275;28;20215;-82
2023/09/30 13:23:47;;;;;;;15.73;8.52;;;;;;;;;;5019510;28;20286;-81
2023/09/30 13:26:14;;;;;;;12.88;7.90;;;;;;;;;;5022170;28;20786;-82
2023/09/30 13:28:42;;;;;;;14.60;8.27;;;;;;;;;;5028128;28;20223;-80
2023/09/30 13:31:09;;;;;;;15.05;8.90;;;;;;;;;;5024166;28;20681;-83
2023/09/30 13:33:38;;;;;;;14.65;8.63;;;;;;;;;;5030823;28;20298;-79
2023/09/30 13:36:05;;;;;;;14.90;8.50;;;;;;;;;;5026856;28;20230;-83
2023/09/30 13:38:33;;;;;;;13.77;7.88;;;;;;;;;;5011251;28;20256;-79
2023/09/30 13:41:01;;;;;;;17.70;9.95;;;;;;;;;;5010986;28;20210;-80
2023/09/30 13:43:28;;;;;;;14.38;8.07;;;;;;;;;;5022847;28;22826;-80
2023/09/30 13:45:56;;;;;;;17.65;9.50;;;;;;;;;;5024630;28;20231;-80
2023/09/30 13:48:24;;;;;;;15.82;8.68;;;;;;;;;;5024532;28;20507;-82
2023/09/30 13:50:52;;;;;;;17.17;8.60;;;;;;;;;;5024617;28;20207;-80
2023/09/30 13:53:19;;;;;;;14.93;9.02;;;;;;;;;;5025748;28;20195;-81
2023/09/30 13:55:47;;;;;;;14.93;8.35;;;;;;;;;;5022038;28;20575;-81
2023/09/30 13:58:14;;;;;;;16.33;9.15;;;;;;;;;;5028109;28;20199;-82
2023/09/30 14:00:47;;;;;;;15.55;9.05;;;;;;;;;;5026807;28;20704;-80
2023/09/30 14:03:14;;;;;;;14.10;7.70;;;;;;;;;;5018637;28;20419;-81
2023/09/30 14:05:42;;;;;;;12.90;7.55;;;;;;;;;;5027132;28;20318;-84
2023/09/30 14:08:09;;;;;;;15.25;8.65;;;;;;;;;;5011365;28;20234;-83
2023/09/30 14:10:37;;;;;;;15.13;8.55;;;;;;;;;;5020361;28;20198;-81
2023/09/30 14:13:04;;;;;;;13.07;7.70;;;;;;;;;;5032108;28;20281;-80
2023/09/30 14:15:31;;;;;;;13.90;7.55;;;;;;;;;;5022459;28;20314;-82
2023/09/30 14:17:59;;;;;;;12.45;6.57;;;;;;;;;;5036941;28;20217;-82
2023/09/30 14:20:26;;;;;;;11.88;7.03;;;;;;;;;;5010593;28;20249;-81
2023/09/30 14:22:56;;;;;;;14.73;7.47;;;;;;;;;;5028777;28;20243;-80
2023/09/30 14:25:24;;;;;;;11.07;6.50;;;;;;;;;;5035413;28;20234;-82
2023/09/30 14:27:51;;;;;;;12.93;6.75;;;;;;;;;;5038727;28;20257;-80
2023/09/30 14:30:19;;;;;;;10.07;6.55;;;;;;;;;;5024921;28;20207;-79
2023/09/30 14:32:47;;;;;;;11.18;6.15;;;;;;;;;;5040002;28;20199;-83
2023/09/30 14:35:15;;;;;;;12.57;7.20;;;;;;;;;;5025667;28;20234;-82
2023/09/30 14:37:42;;;;;;;14.00;7.68;;;;;;;;;;5020946;28;20223;-82
2023/09/30 14:40:10;;;;;;;11.07;6.68;;;;;;;;;;5024017;28;20354;-80
2023/09/30 14:42:38;;;;;;;9.38;6.05;;;;;;;;;;5029503;28;20210;-81
2023/09/30 14:45:06;;;;;;;13.63;8.15;;;;;;;;;;5029413;28;20246;-84